createdAt,value
2019-04-21T00:00:31.837Z,42.71
2019-04-21T00:01:30.716Z,42.61
2019-04-21T00:02:35.727Z,42.63
2019-04-21T00:03:38.325Z,42.82
2019-04-21T00:04:43.246Z,42.41
2019-04-21T00:05:52.995Z,42.43
2019-04-21T00:06:48.424Z,42.83
2019-04-21T00:07:50.751Z,42.94
2019-04-21T00:08:54.120Z,42.63
2019-04-21T00:09:56.260Z,42.94
2019-04-21T00:10:51.318Z,42.94
2019-04-21T00:11:48.335Z,42.74
2019-04-21T00:12:47.201Z,43.65
2019-04-21T00:13:42.490Z,43.85
2019-04-21T00:14:43.596Z,42.86
2019-04-21T00:15:38.391Z,42.74
2019-04-21T00:16:40.662Z,43.55
2019-04-21T00:17:32.048Z,43.77
2019-04-21T00:18:39.717Z,43.77
2019-04-21T00:19:33.584Z,44.08
2019-04-21T00:20:38.227Z,43.87
2019-04-21T00:21:39.580Z,44.08
2019-04-21T00:22:44.331Z,43.98
2019-04-21T00:23:48.084Z,43.98
2019-04-21T00:24:44.459Z,44.00
2019-04-21T00:25:42.685Z,44.10
2019-04-21T00:26:48.125Z,44.71
2019-04-21T00:27:47.501Z,44.00
2019-04-21T00:29:01.329Z,43.79
2019-04-21T00:29:47.912Z,44.20
2019-04-21T00:30:50.849Z,44.00
2019-04-21T00:31:45.563Z,43.49
2019-04-21T00:32:41.826Z,43.49
2019-04-21T00:33:34.309Z,44.00
2019-04-21T00:34:30.316Z,43.69
2019-04-21T00:35:34.520Z,44.10
2019-04-21T00:36:42.772Z,43.59
2019-04-21T00:38:59.078Z,43.29
2019-04-21T00:40:02.166Z,43.90
2019-04-21T00:40:56.723Z,44.00
2019-04-21T00:41:56.175Z,43.81
2019-04-21T00:42:48.779Z,44.12
2019-04-21T00:43:44.760Z,44.43
2019-04-21T00:44:45.815Z,43.81
2019-04-21T00:45:41.789Z,44.02
2019-04-21T00:46:44.870Z,44.12
2019-04-21T00:47:49.859Z,44.43
2019-04-21T00:48:53.566Z,44.12
2019-04-21T00:49:52.720Z,44.12
2019-04-21T00:51:04.169Z,44.12
2019-04-21T00:52:11.396Z,44.32
2019-04-21T00:52:58.078Z,44.32
2019-04-21T00:54:02.739Z,44.22
2019-04-21T00:54:57.816Z,44.22
2019-04-21T00:55:48.646Z,44.65
2019-04-21T00:56:56.923Z,44.65
2019-04-21T00:57:58.690Z,44.75
2019-04-21T00:58:53.693Z,44.75
2019-04-21T00:59:50.529Z,45.06
2019-04-21T01:00:51.338Z,44.12
2019-04-21T01:01:49.326Z,44.75
2019-04-21T01:02:56.551Z,44.85
2019-04-21T01:03:51.991Z,44.45
2019-04-21T01:04:49.908Z,44.85
2019-04-21T01:05:58.941Z,44.96
2019-04-21T01:06:56.183Z,44.85
2019-04-21T01:07:50.621Z,44.65
2019-04-21T01:08:48.876Z,44.85
2019-04-21T01:09:46.334Z,44.85
2019-04-21T01:10:44.024Z,44.75
2019-04-21T01:11:49.540Z,44.85
2019-04-21T01:13:02.763Z,44.75
2019-04-21T01:13:51.761Z,44.65
2019-04-21T01:14:56.100Z,44.34
2019-04-21T01:15:54.632Z,44.67
2019-04-21T01:16:56.125Z,44.46
2019-04-21T01:17:52.221Z,45.18
2019-04-21T01:18:51.711Z,45.18
2019-04-21T01:19:44.169Z,45.28
2019-04-21T01:20:29.807Z,45.28
2019-04-21T01:21:28.800Z,45.06
2019-04-21T01:22:28.812Z,45.39
2019-04-21T01:23:29.714Z,45.06
2019-04-21T01:24:34.684Z,45.28
2019-04-21T01:25:36.624Z,45.08
2019-04-21T01:26:41.665Z,46.08
2019-04-21T01:27:52.120Z,45.69
2019-04-21T01:28:51.137Z,45.89
2019-04-21T01:30:05.676Z,46.20
2019-04-21T01:30:54.829Z,46.30
2019-04-21T01:31:42.636Z,46.10
2019-04-21T01:32:53.305Z,46.00
2019-04-21T01:33:53.087Z,46.22
2019-04-21T01:34:51.352Z,46.22
2019-04-21T01:35:47.947Z,45.92
2019-04-21T01:36:48.615Z,46.43
2019-04-21T01:37:57.825Z,46.02
2019-04-21T01:38:58.978Z,46.63
2019-04-21T01:39:53.578Z,46.83
2019-04-21T01:40:53.135Z,46.53
2019-04-21T01:41:51.391Z,46.43
2019-04-21T01:42:52.865Z,47.02
2019-04-21T01:43:50.329Z,46.63
2019-04-21T01:44:53.565Z,47.16
2019-04-21T01:45:51.938Z,46.73
2019-04-21T01:46:45.843Z,46.73
2019-04-21T01:47:46.334Z,47.57
2019-04-21T01:48:45.886Z,47.34
2019-04-21T01:49:41.662Z,47.37
2019-04-21T01:50:48.317Z,47.88
2019-04-21T01:52:02.828Z,48.18
2019-04-21T01:52:55.960Z,47.27
2019-04-21T01:53:48.189Z,46.86
2019-04-21T01:54:53.480Z,48.28
2019-04-21T01:55:52.494Z,48.80
2019-04-21T01:56:48.865Z,48.18
2019-04-21T01:57:45.214Z,48.69
2019-04-21T01:58:42.557Z,47.88
2019-04-21T01:59:43.905Z,48.80
2019-04-21T02:00:45.342Z,48.49
2019-04-21T02:01:48.539Z,48.18
2019-04-21T02:02:54.562Z,47.57
2019-04-21T02:03:54.359Z,46.75
2019-04-21T02:04:57.789Z,47.06
2019-04-21T02:05:52.995Z,47.27
2019-04-21T02:06:50.544Z,46.66
2019-04-21T02:07:49.303Z,46.75
2019-04-21T02:08:52.533Z,48.39
2019-04-21T02:09:55.170Z,47.98
2019-04-21T02:10:54.613Z,47.98
2019-04-21T02:11:50.702Z,47.06
2019-04-21T02:12:52.465Z,46.96
2019-04-21T02:13:57.687Z,47.16
2019-04-21T02:15:00.735Z,46.66
2019-04-21T02:15:55.537Z,46.86
2019-04-21T02:16:47.987Z,47.37
2019-04-21T02:17:52.020Z,47.06
2019-04-21T02:18:52.624Z,46.75
2019-04-21T02:19:46.389Z,47.19
2019-04-21T02:20:39.865Z,47.08
2019-04-21T02:21:44.920Z,47.67
2019-04-21T02:23:07.370Z,46.88
2019-04-21T02:23:54.038Z,47.60
2019-04-21T02:24:57.378Z,47.90
2019-04-21T02:25:50.610Z,48.21
2019-04-21T02:26:55.961Z,48.41
2019-04-21T02:27:54.755Z,48.10
2019-04-21T02:28:57.435Z,48.51
2019-04-21T02:29:55.971Z,49.02
2019-04-21T02:31:06.076Z,48.82
2019-04-21T02:32:07.877Z,48.92
2019-04-21T02:33:18.481Z,48.10
2019-04-21T02:34:00.275Z,48.74
2019-04-21T02:36:15.073Z,47.90
2019-04-21T02:38:05.048Z,47.90
2019-04-21T02:40:07.024Z,48.13
2019-04-21T02:42:26.448Z,48.33
2019-04-21T02:43:05.370Z,48.74
2019-04-21T02:45:00.370Z,48.43
2019-04-21T02:47:00.556Z,48.74
2019-04-21T02:48:04.417Z,48.74
2019-04-21T02:50:52.914Z,48.74
2019-04-21T02:52:09.163Z,48.84
2019-04-21T02:53:01.409Z,49.05
2019-04-21T02:56:05.711Z,50.40
2019-04-21T02:57:04.871Z,50.30
2019-04-21T02:58:06.060Z,50.12
2019-04-21T02:58:59.773Z,51.34
2019-04-21T03:03:19.936Z,52.37
2019-04-21T03:04:18.566Z,51.95
2019-04-21T03:06:25.031Z,51.86
2019-04-21T03:08:28.062Z,52.59
2019-04-21T03:09:24.098Z,52.67
2019-04-21T03:10:26.254Z,53.49
2019-04-21T03:11:14.501Z,52.59
2019-04-21T03:12:20.200Z,52.59
2019-04-21T03:13:21.708Z,53.21
2019-04-21T03:14:31.146Z,53.72
2019-04-21T03:15:21.355Z,54.25
2019-04-21T03:17:26.738Z,54.67
2019-04-21T03:18:25.377Z,54.67
2019-04-21T03:19:33.204Z,54.87
2019-04-21T03:22:20.400Z,54.57
2019-04-21T03:24:18.394Z,55.00
2019-04-21T03:25:45.302Z,54.59
2019-04-21T03:26:27.419Z,54.38
2019-04-21T03:28:22.320Z,56.02
2019-04-21T03:29:32.834Z,56.13
2019-04-21T03:30:26.353Z,55.92
2019-04-21T03:31:35.326Z,56.13
2019-04-21T03:36:43.897Z,56.05
2019-04-21T03:37:23.519Z,55.74
2019-04-21T03:38:24.642Z,55.94
2019-04-21T03:39:18.247Z,56.05
2019-04-21T03:41:26.498Z,56.35
2019-04-21T03:42:26.955Z,56.46
2019-04-21T03:43:25.026Z,56.46
2019-04-21T03:45:25.183Z,56.05
2019-04-21T03:46:24.710Z,56.97
2019-04-21T03:47:26.878Z,56.05
2019-04-21T03:48:21.719Z,56.97
2019-04-21T03:50:22.721Z,56.97
2019-04-21T03:51:23.187Z,56.77
2019-04-21T03:52:20.082Z,56.77
2019-04-21T03:53:18.526Z,57.41
2019-04-21T03:54:15.604Z,57.20
2019-04-21T03:55:42.911Z,57.51
2019-04-21T03:56:27.048Z,57.51
2019-04-21T03:57:32.392Z,57.23
2019-04-21T03:59:19.717Z,58.15
2019-04-21T04:00:37.712Z,58.07
2019-04-21T04:02:26.324Z,57.98
2019-04-21T04:03:44.257Z,58.59
2019-04-21T04:04:27.961Z,59.34
2019-04-21T04:05:24.321Z,59.75
2019-04-21T04:06:19.646Z,59.57
2019-04-21T04:08:31.473Z,59.95
2019-04-21T04:09:37.848Z,60.16
2019-04-21T04:10:33.939Z,59.85
2019-04-21T04:13:44.914Z,59.44
2019-04-21T04:14:26.857Z,59.00
2019-04-21T04:15:28.982Z,58.80
2019-04-21T04:16:20.402Z,59.00
2019-04-21T04:17:20.353Z,59.00
2019-04-21T04:18:29.889Z,58.80
2019-04-21T04:19:19.122Z,59.00
2019-04-21T04:22:24.899Z,59.52
2019-04-21T04:23:20.939Z,59.52
2019-04-21T04:24:22.320Z,59.72
2019-04-21T04:25:21.425Z,59.62
2019-04-21T04:26:22.130Z,59.92
2019-04-21T04:27:36.896Z,60.23
2019-04-21T04:28:18.821Z,60.33
2019-04-21T04:30:25.408Z,60.75
2019-04-21T04:31:34.749Z,60.85
2019-04-21T04:32:25.217Z,61.16
2019-04-21T04:33:30.346Z,61.26
2019-04-21T04:34:22.834Z,60.85
2019-04-21T04:36:46.987Z,60.10
2019-04-21T04:38:24.541Z,60.03
2019-04-21T04:40:23.271Z,60.31
2019-04-21T04:41:26.554Z,60.72
2019-04-21T04:42:31.457Z,60.61
2019-04-21T04:44:24.893Z,60.82
2019-04-21T04:45:23.734Z,61.05
2019-04-21T04:46:18.399Z,61.26
2019-04-21T04:47:18.285Z,61.57
2019-04-21T04:48:20.230Z,61.67
2019-04-21T04:49:23.993Z,61.26
2019-04-21T04:50:19.723Z,62.11
2019-04-21T04:51:30.636Z,61.87
2019-04-21T04:52:28.905Z,61.80
2019-04-21T04:53:20.343Z,62.01
2019-04-21T04:54:31.987Z,62.21
2019-04-21T04:55:19.069Z,62.01
2019-04-21T04:56:20.611Z,62.49
2019-04-21T04:57:27.429Z,62.21
2019-04-21T04:58:21.976Z,62.01
2019-04-21T04:59:36.534Z,62.29
2019-04-21T05:00:28.853Z,62.49
2019-04-21T05:03:33.137Z,61.98
2019-04-21T05:04:24.150Z,61.57
2019-04-21T05:06:37.221Z,61.54
2019-04-21T05:07:23.486Z,61.54
2019-04-21T05:08:33.847Z,61.54
2019-04-21T05:09:33.680Z,61.98
2019-04-21T05:10:17.602Z,61.13
2019-04-21T05:11:37.706Z,57.54
2019-04-21T05:12:11.302Z,57.23
2019-04-21T05:13:18.416Z,57.75
2019-04-21T05:14:18.384Z,58.77
2019-04-21T05:15:12.663Z,57.75
2019-04-21T05:16:24.097Z,56.41
2019-04-21T05:17:23.031Z,56.18
2019-04-21T05:18:13.578Z,56.28
2019-04-21T05:20:16.550Z,55.98
2019-04-21T05:21:24.419Z,55.43
2019-04-21T05:22:19.913Z,54.61
2019-04-21T05:23:14.465Z,54.72
2019-04-21T05:24:07.499Z,54.74
2019-04-21T05:25:05.423Z,54.74
2019-04-21T05:26:00.038Z,54.41
2019-04-21T05:27:03.185Z,55.13
2019-04-21T05:28:06.368Z,54.95
2019-04-21T05:29:02.072Z,56.79
2019-04-21T05:30:10.176Z,58.03
2019-04-21T05:31:14.065Z,57.41
2019-04-21T05:33:09.502Z,57.43
2019-04-21T05:34:14.982Z,57.82
2019-04-21T05:35:08.016Z,58.12
2019-04-21T05:36:11.491Z,57.41
2019-04-21T05:37:07.243Z,57.71
2019-04-21T05:38:12.803Z,57.00
2019-04-21T05:39:02.529Z,57.28
2019-04-21T05:40:00.423Z,56.87
2019-04-21T05:41:02.182Z,56.02
2019-04-21T05:41:56.502Z,55.00
2019-04-21T05:43:06.219Z,54.59
2019-04-21T05:44:09.906Z,54.18
2019-04-21T05:45:16.067Z,53.75
2019-04-21T05:46:14.264Z,53.64
2019-04-21T05:47:20.582Z,53.64
2019-04-21T05:48:17.865Z,53.95
2019-04-21T05:49:09.303Z,53.00
2019-04-21T05:50:06.591Z,53.41
2019-04-21T05:51:07.085Z,52.59
2019-04-21T05:52:05.519Z,53.52
2019-04-21T05:52:58.557Z,52.26
2019-04-21T05:54:15.118Z,53.39
2019-04-21T05:55:11.865Z,53.41
2019-04-21T05:56:09.974Z,53.08
2019-04-21T05:57:20.664Z,52.78
2019-04-21T05:58:06.836Z,52.78
2019-04-21T05:59:09.702Z,52.47
2019-04-21T06:00:08.849Z,52.67
2019-04-21T06:01:15.133Z,52.26
2019-04-21T06:02:20.201Z,52.37
2019-04-21T06:03:18.405Z,52.16
2019-04-21T06:04:16.837Z,52.57
2019-04-21T06:05:34.973Z,52.37
2019-04-21T06:06:13.582Z,52.26
2019-04-21T06:07:21.563Z,52.34
2019-04-21T06:08:13.353Z,52.14
2019-04-21T06:09:11.462Z,52.34
2019-04-21T06:10:13.843Z,51.93
2019-04-21T06:11:23.889Z,51.93
2019-04-21T06:12:08.730Z,52.55
2019-04-21T06:13:13.030Z,52.22
2019-04-21T06:14:16.944Z,52.11
2019-04-21T06:15:07.956Z,51.91
2019-04-21T06:16:07.365Z,52.32
2019-04-21T06:17:13.479Z,51.60
2019-04-21T06:18:13.238Z,52.09
2019-04-21T06:19:11.379Z,52.19
2019-04-21T06:20:10.360Z,51.78
2019-04-21T06:21:09.849Z,51.27
2019-04-21T06:22:10.464Z,51.57
2019-04-21T06:23:11.557Z,51.55
2019-04-21T06:24:12.687Z,51.86
2019-04-21T06:25:31.665Z,50.84
2019-04-21T06:26:28.236Z,50.02
2019-04-21T06:28:14.925Z,51.25
2019-04-21T06:29:13.399Z,50.31
2019-04-21T06:30:06.562Z,50.10
2019-04-21T06:33:14.101Z,50.38
2019-04-21T06:34:08.215Z,48.03
2019-04-21T06:35:19.730Z,48.75
2019-04-21T06:36:31.216Z,48.55
2019-04-21T06:37:32.684Z,47.73
2019-04-21T06:38:16.616Z,48.73
2019-04-21T06:40:23.066Z,47.81
2019-04-21T06:41:13.537Z,47.89
2019-04-21T06:42:09.759Z,47.20
2019-04-21T06:43:24.646Z,47.30
2019-04-21T06:44:23.951Z,47.26
2019-04-21T06:45:12.984Z,46.67
2019-04-21T06:46:13.589Z,46.64
2019-04-21T06:47:15.570Z,46.44
2019-04-21T06:48:12.203Z,46.03
2019-04-21T06:49:19.442Z,46.64
2019-04-21T06:50:07.547Z,46.03
2019-04-21T06:51:17.175Z,45.12
2019-04-21T06:52:18.153Z,45.00
2019-04-21T06:53:13.545Z,45.00
2019-04-21T06:54:09.436Z,44.49
2019-04-21T06:55:13.870Z,44.49
2019-04-21T06:56:13.917Z,45.28
2019-04-21T06:57:11.373Z,45.18
2019-04-21T06:58:11.627Z,44.87
2019-04-21T06:59:01.403Z,44.77
2019-04-21T07:00:06.481Z,44.77
2019-04-21T07:01:10.183Z,44.65
2019-04-21T07:02:32.152Z,44.77
2019-04-21T07:03:19.313Z,45.15
2019-04-21T07:04:18.573Z,44.95
2019-04-21T07:05:08.993Z,44.75
2019-04-21T07:06:13.160Z,44.14
2019-04-21T07:07:06.800Z,44.22
2019-04-21T07:08:23.303Z,44.12
2019-04-21T07:09:31.308Z,44.12
2019-04-21T07:10:16.942Z,43.91
2019-04-21T07:11:08.347Z,44.12
2019-04-21T07:12:06.110Z,43.71
2019-04-21T07:13:09.311Z,43.99
2019-04-21T07:14:28.043Z,43.79
2019-04-21T07:15:09.957Z,44.30
2019-04-21T07:16:17.572Z,43.90
2019-04-21T07:17:15.983Z,43.90
2019-04-21T07:18:11.018Z,44.18
2019-04-21T07:19:22.140Z,43.69
2019-04-21T07:21:08.213Z,43.87
2019-04-21T07:22:15.805Z,44.08
2019-04-21T07:23:13.440Z,43.57
2019-04-21T07:24:14.252Z,43.35
2019-04-21T07:25:12.399Z,43.44
2019-04-21T07:26:11.094Z,42.43
2019-04-21T07:27:11.695Z,43.14
2019-04-21T07:28:10.946Z,42.74
2019-04-21T07:29:12.222Z,42.31
2019-04-21T07:30:26.642Z,41.70
2019-04-21T07:31:09.950Z,42.21
2019-04-21T07:32:10.451Z,42.21
2019-04-21T07:34:30.568Z,42.51
2019-04-21T07:35:17.526Z,42.41
2019-04-21T07:36:17.433Z,42.69
2019-04-21T07:37:06.024Z,42.29
2019-04-21T07:38:03.004Z,41.48
2019-04-21T07:39:09.055Z,41.66
2019-04-21T07:40:05.440Z,41.38
2019-04-21T07:41:02.608Z,41.86
2019-04-21T07:42:06.885Z,42.07
2019-04-21T07:43:04.164Z,42.68
2019-04-21T07:44:01.731Z,42.17
2019-04-21T07:45:05.233Z,41.86
2019-04-21T07:46:02.690Z,42.05
2019-04-21T07:47:06.043Z,41.34
2019-04-21T07:48:08.279Z,42.15
2019-04-21T07:49:11.381Z,41.44
2019-04-21T07:50:06.823Z,41.54
2019-04-21T07:51:11.222Z,42.25
2019-04-21T07:52:11.383Z,41.83
2019-04-21T07:53:19.419Z,41.63
2019-04-21T07:54:15.334Z,41.42
2019-04-21T07:55:20.246Z,41.63
2019-04-21T07:55:50.975Z,41.42
2019-04-21T07:56:59.379Z,41.32
2019-04-21T07:58:22.669Z,41.93
2019-04-21T07:59:05.187Z,42.23
2019-04-21T08:00:20.704Z,42.33
2019-04-21T08:01:12.213Z,41.60
2019-04-21T08:02:14.171Z,42.23
2019-04-21T08:03:08.111Z,41.60
2019-04-21T08:04:08.496Z,41.71
2019-04-21T08:06:08.371Z,41.50
2019-04-21T08:07:07.255Z,41.28
2019-04-21T08:07:59.663Z,41.78
2019-04-21T08:09:07.367Z,40.77
2019-04-21T08:10:02.870Z,42.09
2019-04-21T08:11:02.921Z,41.28
2019-04-21T08:12:00.333Z,41.26
2019-04-21T08:13:09.944Z,41.06
2019-04-21T08:15:18.168Z,40.66
2019-04-21T08:17:09.807Z,41.46
2019-04-21T08:18:09.210Z,41.87
2019-04-21T08:19:09.606Z,42.15
2019-04-21T08:19:59.081Z,41.44
2019-04-21T08:21:05.749Z,41.35
2019-04-21T08:22:12.589Z,40.44
2019-04-21T08:23:05.972Z,41.55
2019-04-21T08:24:13.574Z,41.14
2019-04-21T08:25:09.181Z,41.24
2019-04-21T08:26:31.180Z,41.35
2019-04-21T08:27:13.836Z,41.44
2019-04-21T08:28:05.980Z,40.52
2019-04-21T08:29:14.500Z,41.42
2019-04-21T08:30:04.993Z,41.63
2019-04-21T08:31:09.826Z,40.72
2019-04-21T08:32:31.618Z,41.32
2019-04-21T08:34:07.683Z,40.61
2019-04-21T08:35:33.846Z,40.41
2019-04-21T08:37:08.809Z,40.72
2019-04-21T08:38:11.809Z,40.92
2019-04-21T08:39:08.072Z,41.63
2019-04-21T08:40:09.582Z,40.82
2019-04-21T08:41:08.685Z,41.41
2019-04-21T08:42:08.551Z,41.02
2019-04-21T08:43:02.910Z,40.59
2019-04-21T08:44:02.005Z,39.99
2019-04-21T08:45:07.687Z,40.30
2019-04-21T08:46:11.205Z,41.30
2019-04-21T08:47:07.464Z,40.80
2019-04-21T08:48:05.861Z,39.99
2019-04-21T08:49:08.041Z,39.97
2019-04-21T08:50:08.436Z,40.19
2019-04-21T08:51:22.440Z,40.68
2019-04-21T08:52:13.826Z,40.48
2019-04-21T08:53:07.095Z,40.88
2019-04-21T08:54:09.287Z,39.87
2019-04-21T08:55:10.910Z,40.88
2019-04-21T08:56:09.989Z,40.36
2019-04-21T08:57:10.383Z,39.15
2019-04-21T08:59:12.793Z,40.66
2019-04-21T09:00:05.353Z,40.86
2019-04-21T09:01:10.575Z,40.96
2019-04-21T09:02:06.278Z,41.27
2019-04-21T09:03:06.789Z,40.86
2019-04-21T09:04:11.125Z,40.76
2019-04-21T09:05:09.451Z,40.54
2019-04-21T09:06:10.102Z,40.66
2019-04-21T09:08:06.703Z,40.54
2019-04-21T09:09:07.862Z,39.94
2019-04-21T09:10:03.174Z,39.63
2019-04-21T09:10:59.386Z,40.23
2019-04-21T09:12:05.791Z,39.83
2019-04-21T09:13:08.411Z,40.23
2019-04-21T09:14:01.156Z,40.23
2019-04-21T09:15:08.379Z,39.53
2019-04-21T09:15:59.440Z,39.83
2019-04-21T09:17:00.436Z,40.03
2019-04-21T09:17:57.974Z,39.83
2019-04-21T09:18:59.781Z,40.64
2019-04-21T09:20:13.960Z,40.42
2019-04-21T09:21:07.270Z,39.94
2019-04-21T09:22:17.904Z,40.22
2019-04-21T09:23:06.488Z,40.52
2019-04-21T09:24:04.568Z,40.72
2019-04-21T09:25:01.635Z,39.72
2019-04-21T09:26:05.581Z,39.79
2019-04-21T09:27:03.746Z,39.29
2019-04-21T09:28:02.345Z,40.00
2019-04-21T09:28:56.873Z,39.59
2019-04-21T09:29:53.493Z,39.50
2019-04-21T09:30:52.327Z,39.09
2019-04-21T09:31:47.747Z,38.89
2019-04-21T09:32:44.558Z,38.79
2019-04-21T09:33:48.988Z,38.57
2019-04-21T09:34:47.080Z,39.79
2019-04-21T09:35:49.194Z,39.07
2019-04-21T09:36:51.232Z,38.39
2019-04-21T09:37:54.571Z,39.37
2019-04-21T09:38:54.694Z,38.37
2019-04-21T09:39:50.005Z,39.17
2019-04-21T09:40:48.983Z,39.07
2019-04-21T09:41:49.891Z,38.87
2019-04-21T09:42:54.185Z,39.05
2019-04-21T09:43:48.991Z,39.15
2019-04-21T09:44:47.561Z,38.55
2019-04-21T09:45:45.301Z,40.26
2019-04-21T09:46:50.734Z,38.75
2019-04-21T09:47:55.634Z,39.05
2019-04-21T09:48:54.879Z,39.05
2019-04-21T09:49:45.243Z,39.36
2019-04-21T09:50:44.029Z,40.75
2019-04-21T09:51:44.030Z,38.73
2019-04-21T09:52:49.737Z,38.64
2019-04-21T09:53:54.594Z,38.83
2019-04-21T09:54:53.002Z,38.64
2019-04-21T09:55:53.574Z,37.32
2019-04-21T09:56:51.065Z,37.23
2019-04-21T09:57:52.183Z,37.32
2019-04-21T09:58:49.527Z,37.21
2019-04-21T09:59:53.885Z,36.90
2019-04-21T10:01:00.018Z,37.43
2019-04-21T10:01:55.945Z,37.10
2019-04-21T10:02:53.498Z,37.51
2019-04-21T10:03:48.645Z,37.12
2019-04-21T10:04:46.096Z,37.51
2019-04-21T10:05:45.127Z,37.81
2019-04-21T10:06:45.179Z,37.51
2019-04-21T10:07:44.387Z,37.61
2019-04-21T10:08:44.614Z,37.51
2019-04-21T10:09:43.807Z,37.10
2019-04-21T10:10:44.448Z,37.51
2019-04-21T10:11:43.908Z,37.51
2019-04-21T10:12:43.773Z,36.30
2019-04-21T10:13:44.301Z,37.51
2019-04-21T10:14:45.117Z,35.80
2019-04-21T10:15:44.111Z,35.30
2019-04-21T10:16:44.963Z,36.70
2019-04-21T10:17:43.973Z,36.30
2019-04-21T10:18:43.893Z,35.78
2019-04-21T10:19:44.118Z,36.08
2019-04-21T10:20:44.782Z,36.49
2019-04-21T10:21:44.455Z,36.70
2019-04-21T10:22:44.755Z,37.49
2019-04-21T10:23:43.817Z,36.79
2019-04-21T10:24:44.612Z,35.19
2019-04-21T10:25:43.666Z,34.88
2019-04-21T10:26:43.648Z,33.27
2019-04-21T10:27:43.633Z,34.17
2019-04-21T10:28:43.634Z,33.07
2019-04-21T10:29:45.410Z,33.87
2019-04-21T10:30:44.780Z,33.27
2019-04-21T10:31:44.866Z,33.55
2019-04-21T10:32:43.583Z,33.75
2019-04-21T10:33:44.258Z,34.96
2019-04-21T10:34:43.557Z,34.96
2019-04-21T10:35:43.559Z,34.76
2019-04-21T10:36:44.768Z,34.78
2019-04-21T10:37:57.607Z,34.86
2019-04-21T10:38:48.735Z,35.16
2019-04-21T10:39:45.378Z,34.76
2019-04-21T10:40:43.513Z,34.86
2019-04-21T10:41:43.594Z,35.06
2019-04-21T10:42:43.500Z,34.26
2019-04-21T10:43:43.492Z,34.96
2019-04-21T10:44:43.418Z,34.86
2019-04-21T10:45:43.435Z,35.46
2019-04-21T10:46:45.713Z,33.65
2019-04-21T10:47:43.385Z,34.56
2019-04-21T10:48:43.425Z,34.26
2019-04-21T10:49:44.579Z,34.86
2019-04-21T10:50:43.401Z,34.86
2019-04-21T10:51:43.454Z,34.84
2019-04-21T10:52:43.336Z,34.14
2019-04-21T10:53:43.336Z,33.44
2019-04-21T10:55:06.879Z,34.24
2019-04-21T10:55:57.909Z,33.64
2019-04-21T10:56:45.698Z,33.34
2019-04-21T10:57:44.303Z,33.54
2019-04-21T10:58:44.492Z,33.64
2019-04-21T10:59:47.973Z,33.14
2019-04-21T11:00:44.297Z,32.93
2019-04-21T11:01:43.293Z,32.92
2019-04-21T11:02:43.371Z,32.92
2019-04-21T11:03:44.629Z,32.32
2019-04-21T11:04:44.017Z,33.02
2019-04-21T11:05:43.225Z,33.12
2019-04-21T11:06:44.312Z,32.82
2019-04-21T11:07:59.702Z,32.82
2019-04-21T11:08:48.882Z,32.92
2019-04-21T11:09:44.352Z,32.81
2019-04-21T11:10:45.774Z,32.90
2019-04-21T11:11:44.984Z,33.61
2019-04-21T11:12:44.746Z,33.51
2019-04-21T11:13:46.292Z,32.30
2019-04-21T11:14:43.156Z,32.60
2019-04-21T11:15:43.216Z,31.70
2019-04-21T11:16:45.831Z,32.60
2019-04-21T11:17:43.883Z,32.70
2019-04-21T11:18:44.110Z,32.90
2019-04-21T11:19:43.171Z,31.70
2019-04-21T11:20:43.061Z,32.50
2019-04-21T11:21:43.056Z,32.52
2019-04-21T11:22:43.892Z,32.72
2019-04-21T11:23:43.858Z,33.00
2019-04-21T11:24:43.092Z,32.81
2019-04-21T11:25:44.016Z,33.20
2019-04-21T11:26:43.016Z,32.42
2019-04-21T11:27:42.973Z,32.30
2019-04-21T11:28:43.159Z,33.71
2019-04-21T11:29:43.299Z,32.90
2019-04-21T11:30:42.984Z,33.00
2019-04-21T11:31:43.181Z,33.71
2019-04-21T11:32:44.928Z,34.01
2019-04-21T11:33:43.077Z,34.01
2019-04-21T11:34:43.181Z,34.21
2019-04-21T11:35:43.525Z,34.01
2019-04-21T11:36:43.902Z,33.40
2019-04-21T11:37:44.092Z,32.79
2019-04-21T11:38:58.126Z,33.20
2019-04-21T11:39:52.144Z,33.09
2019-04-21T11:40:45.613Z,32.49
2019-04-21T11:41:43.608Z,32.89
2019-04-21T11:42:43.911Z,33.19
2019-04-21T11:43:43.255Z,32.99
2019-04-21T11:44:42.860Z,33.29
2019-04-21T11:45:42.769Z,33.99
2019-04-21T11:46:42.787Z,33.19
2019-04-21T11:47:42.783Z,33.39
2019-04-21T11:48:44.026Z,32.99
2019-04-21T11:49:43.150Z,33.29
2019-04-21T11:50:43.357Z,33.19
2019-04-21T11:51:42.913Z,33.19
2019-04-21T11:52:43.172Z,32.29
2019-04-21T11:53:43.118Z,32.67
2019-04-21T11:54:42.844Z,33.37
2019-04-21T11:55:46.392Z,33.78
2019-04-21T11:56:45.090Z,32.67
2019-04-21T11:57:46.369Z,32.47
2019-04-21T11:58:43.994Z,32.67
2019-04-21T11:59:43.851Z,32.77
2019-04-21T12:00:42.590Z,33.98
2019-04-21T12:01:43.536Z,32.57
2019-04-21T12:02:43.720Z,32.87
2019-04-21T12:03:42.552Z,32.57
2019-04-21T12:04:43.451Z,32.57
2019-04-21T12:05:43.506Z,31.46
2019-04-21T12:06:47.011Z,31.65
2019-04-21T12:07:43.530Z,32.26
2019-04-21T12:08:46.203Z,32.76
2019-04-21T12:09:43.769Z,32.06
2019-04-21T12:10:42.474Z,32.65
2019-04-21T12:11:43.227Z,32.76
2019-04-21T12:12:43.321Z,31.15
2019-04-21T12:13:42.443Z,31.65
2019-04-21T12:14:43.831Z,32.35
2019-04-21T12:15:43.044Z,32.56
2019-04-21T12:16:43.269Z,32.74
2019-04-21T12:17:43.874Z,31.56
2019-04-21T12:18:42.950Z,31.34
2019-04-21T12:19:42.886Z,30.84
2019-04-21T12:20:43.112Z,30.35
2019-04-21T12:21:53.489Z,30.24
2019-04-21T12:22:43.442Z,29.74
2019-04-21T12:23:42.719Z,30.64
2019-04-21T12:24:43.006Z,30.24
2019-04-21T12:25:42.980Z,30.34
2019-04-21T12:26:42.343Z,31.14
2019-04-21T12:27:43.769Z,30.84
2019-04-21T12:28:42.278Z,30.94
2019-04-21T12:29:42.255Z,31.44
2019-04-21T12:30:42.257Z,30.04
2019-04-21T12:31:43.408Z,31.35
2019-04-21T12:32:42.302Z,30.84
2019-04-21T12:33:43.500Z,30.94
2019-04-21T12:34:42.219Z,30.54
2019-04-21T12:35:42.199Z,30.74
2019-04-21T12:36:43.678Z,29.94
2019-04-21T12:37:42.796Z,28.74
2019-04-21T12:38:49.003Z,29.34
2019-04-21T12:39:43.154Z,28.94
2019-04-21T12:40:42.357Z,30.34
2019-04-21T12:41:42.612Z,30.94
2019-04-21T12:42:43.626Z,31.74
2019-04-21T12:43:42.598Z,29.03
2019-04-21T12:44:43.318Z,28.64
2019-04-21T12:45:42.135Z,29.14
2019-04-21T12:46:42.088Z,28.64
2019-04-21T12:47:42.083Z,28.64
2019-04-21T12:48:42.139Z,29.03
2019-04-21T12:49:43.480Z,29.12
2019-04-21T12:50:42.022Z,29.32
2019-04-21T12:51:42.072Z,29.03
2019-04-21T12:52:42.137Z,28.84
2019-04-21T12:53:43.245Z,28.84
2019-04-21T12:54:41.993Z,29.22
2019-04-21T12:55:45.865Z,29.44
2019-04-21T12:56:43.244Z,30.14
2019-04-21T12:57:43.446Z,29.62
2019-04-21T12:58:41.957Z,29.02
2019-04-21T12:59:42.644Z,29.02
2019-04-21T13:00:42.900Z,28.42
2019-04-21T13:01:43.081Z,28.94
2019-04-21T13:02:41.919Z,27.92
2019-04-21T13:03:41.973Z,28.23
2019-04-21T13:04:42.130Z,28.12
2019-04-21T13:05:43.130Z,27.42
2019-04-21T13:06:41.840Z,27.22
2019-04-21T13:07:41.911Z,27.72
2019-04-21T13:08:50.933Z,28.81
2019-04-21T13:09:44.198Z,28.62
2019-04-21T13:10:42.298Z,27.22
2019-04-21T13:11:41.781Z,28.02
2019-04-21T13:12:41.802Z,29.02
2019-04-21T13:13:42.089Z,28.92
2019-04-21T13:14:42.110Z,28.62
2019-04-21T13:15:43.247Z,28.22
2019-04-21T13:16:41.737Z,29.12
2019-04-21T13:17:44.353Z,28.52
2019-04-21T13:18:41.845Z,29.71
2019-04-21T13:19:41.693Z,30.81
2019-04-21T13:20:42.259Z,30.31
2019-04-21T13:21:42.382Z,29.62
2019-04-21T13:22:41.982Z,28.41
2019-04-21T13:23:42.930Z,29.21
2019-04-21T13:24:42.101Z,29.31
2019-04-21T13:25:41.767Z,29.01
2019-04-21T13:26:48.370Z,28.91
2019-04-21T13:27:43.114Z,29.01
2019-04-21T13:28:42.549Z,28.91
2019-04-21T13:29:41.979Z,28.81
2019-04-21T13:30:42.284Z,29.31
2019-04-21T13:31:42.538Z,28.51
2019-04-21T13:32:42.911Z,29.51
2019-04-21T13:33:41.993Z,28.51
2019-04-21T13:34:42.109Z,29.31
2019-04-21T13:35:41.558Z,29.31
2019-04-21T13:36:41.512Z,29.11
2019-04-21T13:37:41.646Z,29.41
2019-04-21T13:38:57.206Z,29.41
2019-04-21T13:40:09.760Z,28.91
2019-04-21T13:40:56.925Z,28.71
2019-04-21T13:41:55.974Z,28.59
2019-04-21T13:42:46.692Z,29.00
2019-04-21T13:43:43.287Z,29.69
2019-04-21T13:44:41.453Z,28.19
2019-04-21T13:45:41.753Z,28.80
2019-04-21T13:46:42.879Z,27.70
2019-04-21T13:47:48.393Z,26.78
2019-04-21T13:48:42.608Z,27.39
2019-04-21T13:49:41.584Z,27.70
2019-04-21T13:50:41.539Z,27.59